Flight Briefing for CPX775

Departure Arrival
Li├Ęge Airport (EBLG)
Click to view FAA NOTAMS
Ben Gurion International Airport (LLBG)
Click to view FAA NOTAMS
Departure Time Arrival Time
N/A N/A
Aircraft Distance
B767-300BDSF 1718nm
Departure METAR Arrival METAR
EBLG 221120Z 16004KT 110V240 CAVOK 17/00 Q1029 NOSIG LLBG 221120Z 30009KT 9999 FEW030 20/13 Q1015 NOSIG
Suggested Route
LIRSU UZ315 RIDAR UZ738 UNKEN TALAS UN130 MES UL609 SOLIN GODED2


View recent IFR Routes data
Notes



Charts and Procedures

Charts for EBLG
No chart available
Charts for LLBG
No chart available

Windy.com Weather Map